Terminal Aerodrome Forecast
Issued by NWS Louisville, KY

Home | Current Version | Previous Version | Text Only | Print | Product List | Glossary On
Versions: 1 2 3 4 5 6 7 8 9 10 11 12 13 14
000
FTUS43 KLMK 211100
TAFBWG
TAF
KBWG 211129Z 2112/2212 00000KT 2SM BR SKC
      TEMPO 2112/2113 1/4SM BCFG SCT002
     FM211500 35007KT P6SM SCT040
     FM220100 00000KT P6SM SKC
      TEMPO 2209/2212 1SM BR=

USA.gov is the U.S. government's official web portal to all federal, state and local government web resources and services.